sensor_id;sensor_type;location;lat;lon;timestamp;temperature;humidity
14236;DHT22;7202;50.718;7.072;2022-11-20T00:01:36;4.10;99.90
14236;DHT22;7202;50.718;7.072;2022-11-20T00:04:05;4.10;99.90
14236;DHT22;7202;50.718;7.072;2022-11-20T00:06:34;4.10;99.90
14236;DHT22;7202;50.718;7.072;2022-11-20T00:09:03;4.10;99.90
14236;DHT22;7202;50.718;7.072;2022-11-20T00:11:32;4.10;99.90
14236;DHT22;7202;50.718;7.072;2022-11-20T00:14:01;4.10;99.90
14236;DHT22;7202;50.718;7.072;2022-11-20T00:16:32;4.10;99.90
14236;DHT22;7202;50.718;7.072;2022-11-20T00:19:01;4.10;99.90
14236;DHT22;7202;50.718;7.072;2022-11-20T00:21:30;4.30;99.90
14236;DHT22;7202;50.718;7.072;2022-11-20T00:24:00;4.10;99.90
14236;DHT22;7202;50.718;7.072;2022-11-20T00:26:29;4.10;99.90
14236;DHT22;7202;50.718;7.072;2022-11-20T00:28:59;4.20;99.90
14236;DHT22;7202;50.718;7.072;2022-11-20T00:31:29;4.10;99.90
14236;DHT22;7202;50.718;7.072;2022-11-20T00:33:57;4.10;99.90
14236;DHT22;7202;50.718;7.072;2022-11-20T00:36:27;4.10;99.90
14236;DHT22;7202;50.718;7.072;2022-11-20T00:38:57;4.10;99.90
14236;DHT22;7202;50.718;7.072;2022-11-20T00:41:29;4.10;99.90
14236;DHT22;7202;50.718;7.072;2022-11-20T00:43:57;4.10;99.90
14236;DHT22;7202;50.718;7.072;2022-11-20T00:46:27;4.10;99.90
14236;DHT22;7202;50.718;7.072;2022-11-20T00:48:57;4.10;99.90
14236;DHT22;7202;50.718;7.072;2022-11-20T00:51:26;4.10;99.90
14236;DHT22;7202;50.718;7.072;2022-11-20T00:53:56;4.10;99.90
14236;DHT22;7202;50.718;7.072;2022-11-20T00:56:25;4.00;99.90
14236;DHT22;7202;50.718;7.072;2022-11-20T00:58:55;4.00;99.90
14236;DHT22;7202;50.718;7.072;2022-11-20T01:01:25;4.10;99.90
14236;DHT22;7202;50.718;7.072;2022-11-20T01:03:57;4.00;99.90
14236;DHT22;7202;50.718;7.072;2022-11-20T01:06:28;4.00;99.90
14236;DHT22;7202;50.718;7.072;2022-11-20T01:08:58;4.00;99.90
14236;DHT22;7202;50.718;7.072;2022-11-20T01:11:29;4.10;99.90
14236;DHT22;7202;50.718;7.072;2022-11-20T01:14:00;4.10;99.90
14236;DHT22;7202;50.718;7.072;2022-11-20T01:16:31;4.10;99.90
14236;DHT22;7202;50.718;7.072;2022-11-20T01:19:02;4.10;99.90
14236;DHT22;7202;50.718;7.072;2022-11-20T01:21:33;4.10;99.90
14236;DHT22;7202;50.718;7.072;2022-11-20T01:24:02;4.10;99.90
14236;DHT22;7202;50.718;7.072;2022-11-20T01:26:34;4.10;99.90
14236;DHT22;7202;50.718;7.072;2022-11-20T01:29:04;4.00;99.90
14236;DHT22;7202;50.718;7.072;2022-11-20T01:31:35;4.00;99.90
14236;DHT22;7202;50.718;7.072;2022-11-20T01:34:06;4.10;99.90
14236;DHT22;7202;50.718;7.072;2022-11-20T01:36:36;4.00;99.90
14236;DHT22;7202;50.718;7.072;2022-11-20T01:39:09;4.00;99.90
14236;DHT22;7202;50.718;7.072;2022-11-20T01:41:38;4.00;99.90
14236;DHT22;7202;50.718;7.072;2022-11-20T01:44:49;4.00;99.90
14236;DHT22;7202;50.718;7.072;2022-11-20T01:47:21;4.00;99.90
14236;DHT22;7202;50.718;7.072;2022-11-20T01:49:54;4.00;99.90
14236;DHT22;7202;50.718;7.072;2022-11-20T01:52:29;4.00;99.90
14236;DHT22;7202;50.718;7.072;2022-11-20T01:55:01;4.00;99.90
14236;DHT22;7202;50.718;7.072;2022-11-20T01:57:33;4.00;99.90
14236;DHT22;7202;50.718;7.072;2022-11-20T02:00:07;4.00;99.90
14236;DHT22;7202;50.718;7.072;2022-11-20T02:02:42;4.00;99.90
14236;DHT22;7202;50.718;7.072;2022-11-20T02:05:18;4.00;99.90
14236;DHT22;7202;50.718;7.072;2022-11-20T02:07:48;4.00;99.90
14236;DHT22;7202;50.718;7.072;2022-11-20T02:10:17;4.00;99.90
14236;DHT22;7202;50.718;7.072;2022-11-20T02:12:47;4.00;99.90
14236;DHT22;7202;50.718;7.072;2022-11-20T02:15:35;3.90;99.90
14236;DHT22;7202;50.718;7.072;2022-11-20T02:18:04;3.90;99.90
14236;DHT22;7202;50.718;7.072;2022-11-20T02:20:33;3.90;99.90
14236;DHT22;7202;50.718;7.072;2022-11-20T02:23:04;4.00;99.90
14236;DHT22;7202;50.718;7.072;2022-11-20T02:25:35;4.00;99.90
14236;DHT22;7202;50.718;7.072;2022-11-20T02:28:05;4.00;99.90
14236;DHT22;7202;50.718;7.072;2022-11-20T02:30:34;4.00;99.90
14236;DHT22;7202;50.718;7.072;2022-11-20T02:33:02;4.00;99.90
14236;DHT22;7202;50.718;7.072;2022-11-20T02:35:43;4.10;99.90
14236;DHT22;7202;50.718;7.072;2022-11-20T02:38:13;4.10;99.90
14236;DHT22;7202;50.718;7.072;2022-11-20T02:40:43;4.10;99.90
14236;DHT22;7202;50.718;7.072;2022-11-20T02:43:12;4.10;99.90
14236;DHT22;7202;50.718;7.072;2022-11-20T02:45:40;4.00;99.90
14236;DHT22;7202;50.718;7.072;2022-11-20T02:48:09;4.00;99.90
14236;DHT22;7202;50.718;7.072;2022-11-20T02:50:38;4.00;99.90
14236;DHT22;7202;50.718;7.072;2022-11-20T02:53:07;4.00;99.90
14236;DHT22;7202;50.718;7.072;2022-11-20T02:55:36;4.00;99.90
14236;DHT22;7202;50.718;7.072;2022-11-20T02:58:06;4.00;99.90
14236;DHT22;7202;50.718;7.072;2022-11-20T03:00:35;4.00;99.90
14236;DHT22;7202;50.718;7.072;2022-11-20T03:03:04;4.00;99.90
14236;DHT22;7202;50.718;7.072;2022-11-20T03:05:33;4.10;99.90
14236;DHT22;7202;50.718;7.072;2022-11-20T03:08:01;4.10;99.90
14236;DHT22;7202;50.718;7.072;2022-11-20T03:10:30;4.00;99.90
14236;DHT22;7202;50.718;7.072;2022-11-20T03:12:59;4.00;99.90
14236;DHT22;7202;50.718;7.072;2022-11-20T03:15:31;4.10;99.90
14236;DHT22;7202;50.718;7.072;2022-11-20T03:17:59;4.00;99.90
14236;DHT22;7202;50.718;7.072;2022-11-20T03:20:28;4.00;99.90
14236;DHT22;7202;50.718;7.072;2022-11-20T03:22:57;4.00;99.90
14236;DHT22;7202;50.718;7.072;2022-11-20T03:25:25;4.00;99.90
14236;DHT22;7202;50.718;7.072;2022-11-20T03:27:54;4.00;99.90
14236;DHT22;7202;50.718;7.072;2022-11-20T03:30:23;4.00;99.90
14236;DHT22;7202;50.718;7.072;2022-11-20T03:32:58;4.00;99.90
14236;DHT22;7202;50.718;7.072;2022-11-20T03:35:27;4.00;99.90
14236;DHT22;7202;50.718;7.072;2022-11-20T03:37:55;4.00;99.90
14236;DHT22;7202;50.718;7.072;2022-11-20T03:40:25;4.00;99.90
14236;DHT22;7202;50.718;7.072;2022-11-20T03:42:53;4.10;99.90
14236;DHT22;7202;50.718;7.072;2022-11-20T03:45:22;4.10;99.90
14236;DHT22;7202;50.718;7.072;2022-11-20T03:47:50;4.10;99.90
14236;DHT22;7202;50.718;7.072;2022-11-20T03:50:20;4.10;99.90
14236;DHT22;7202;50.718;7.072;2022-11-20T03:52:49;4.10;99.90
14236;DHT22;7202;50.718;7.072;2022-11-20T03:55:17;4.10;99.90
14236;DHT22;7202;50.718;7.072;2022-11-20T03:57:46;4.00;99.90
14236;DHT22;7202;50.718;7.072;2022-11-20T04:00:15;4.10;99.90
14236;DHT22;7202;50.718;7.072;2022-11-20T04:02:44;4.10;99.90
14236;DHT22;7202;50.718;7.072;2022-11-20T04:05:12;4.10;99.90
14236;DHT22;7202;50.718;7.072;2022-11-20T04:07:42;4.10;99.90
14236;DHT22;7202;50.718;7.072;2022-11-20T04:10:11;4.10;99.90
14236;DHT22;7202;50.718;7.072;2022-11-20T04:12:39;4.10;99.90
14236;DHT22;7202;50.718;7.072;2022-11-20T04:15:09;4.10;99.90
14236;DHT22;7202;50.718;7.072;2022-11-20T04:17:37;4.10;99.90
14236;DHT22;7202;50.718;7.072;2022-11-20T04:20:07;4.10;99.90
14236;DHT22;7202;50.718;7.072;2022-11-20T04:22:35;4.10;99.90
14236;DHT22;7202;50.718;7.072;2022-11-20T04:25:06;4.10;99.90
14236;DHT22;7202;50.718;7.072;2022-11-20T04:27:35;4.10;99.90
14236;DHT22;7202;50.718;7.072;2022-11-20T04:30:04;4.10;99.90
14236;DHT22;7202;50.718;7.072;2022-11-20T04:32:33;4.10;99.90
14236;DHT22;7202;50.718;7.072;2022-11-20T04:35:02;4.10;99.90
14236;DHT22;7202;50.718;7.072;2022-11-20T04:37:30;4.10;99.90
14236;DHT22;7202;50.718;7.072;2022-11-20T04:39:59;4.10;99.90
14236;DHT22;7202;50.718;7.072;2022-11-20T04:42:28;4.10;99.90
14236;DHT22;7202;50.718;7.072;2022-11-20T04:44:57;4.10;99.90
14236;DHT22;7202;50.718;7.072;2022-11-20T04:47:26;4.10;99.90
14236;DHT22;7202;50.718;7.072;2022-11-20T04:49:54;4.10;99.90
14236;DHT22;7202;50.718;7.072;2022-11-20T04:52:23;4.10;99.90
14236;DHT22;7202;50.718;7.072;2022-11-20T04:54:51;4.10;99.90
14236;DHT22;7202;50.718;7.072;2022-11-20T04:57:21;4.10;99.90
14236;DHT22;7202;50.718;7.072;2022-11-20T04:59:50;4.10;99.90
14236;DHT22;7202;50.718;7.072;2022-11-20T05:02:20;4.10;99.90
14236;DHT22;7202;50.718;7.072;2022-11-20T05:04:49;4.10;99.90
14236;DHT22;7202;50.718;7.072;2022-11-20T05:07:17;4.10;99.90
14236;DHT22;7202;50.718;7.072;2022-11-20T05:09:46;4.10;99.90
14236;DHT22;7202;50.718;7.072;2022-11-20T05:12:14;4.20;99.90
14236;DHT22;7202;50.718;7.072;2022-11-20T05:14:43;4.20;99.90
14236;DHT22;7202;50.718;7.072;2022-11-20T05:17:13;4.20;99.90
14236;DHT22;7202;50.718;7.072;2022-11-20T05:19:42;4.20;99.90
14236;DHT22;7202;50.718;7.072;2022-11-20T05:22:10;4.20;99.90
14236;DHT22;7202;50.718;7.072;2022-11-20T05:24:39;4.20;99.90
14236;DHT22;7202;50.718;7.072;2022-11-20T05:27:07;4.20;99.90
14236;DHT22;7202;50.718;7.072;2022-11-20T05:29:36;4.20;99.90
14236;DHT22;7202;50.718;7.072;2022-11-20T05:32:05;4.20;99.90
14236;DHT22;7202;50.718;7.072;2022-11-20T05:34:37;4.20;99.90
14236;DHT22;7202;50.718;7.072;2022-11-20T05:37:06;4.20;99.90
14236;DHT22;7202;50.718;7.072;2022-11-20T05:39:34;4.10;99.90
14236;DHT22;7202;50.718;7.072;2022-11-20T05:42:03;4.20;99.90
14236;DHT22;7202;50.718;7.072;2022-11-20T05:44:49;4.20;99.90
14236;DHT22;7202;50.718;7.072;2022-11-20T05:47:18;4.20;99.90
14236;DHT22;7202;50.718;7.072;2022-11-20T05:49:48;4.20;99.90
14236;DHT22;7202;50.718;7.072;2022-11-20T05:52:16;4.20;99.90
14236;DHT22;7202;50.718;7.072;2022-11-20T05:54:45;4.20;99.90
14236;DHT22;7202;50.718;7.072;2022-11-20T05:57:13;4.20;99.90
14236;DHT22;7202;50.718;7.072;2022-11-20T05:59:42;4.20;99.90
14236;DHT22;7202;50.718;7.072;2022-11-20T06:02:11;4.20;99.90
14236;DHT22;7202;50.718;7.072;2022-11-20T06:04:39;4.20;99.90
14236;DHT22;7202;50.718;7.072;2022-11-20T06:07:09;4.20;99.90
14236;DHT22;7202;50.718;7.072;2022-11-20T06:09:38;4.20;99.90
14236;DHT22;7202;50.718;7.072;2022-11-20T06:12:07;4.20;99.90
14236;DHT22;7202;50.718;7.072;2022-11-20T06:14:35;4.20;99.90
14236;DHT22;7202;50.718;7.072;2022-11-20T06:17:04;4.20;99.90
14236;DHT22;7202;50.718;7.072;2022-11-20T06:19:32;4.20;99.90
14236;DHT22;7202;50.718;7.072;2022-11-20T06:22:01;4.20;99.90
14236;DHT22;7202;50.718;7.072;2022-11-20T06:24:31;4.20;99.90
14236;DHT22;7202;50.718;7.072;2022-11-20T06:26:59;4.20;99.90
14236;DHT22;7202;50.718;7.072;2022-11-20T06:29:28;4.20;99.90
14236;DHT22;7202;50.718;7.072;2022-11-20T06:32:00;4.20;99.90
14236;DHT22;7202;50.718;7.072;2022-11-20T06:34:29;4.20;99.90
14236;DHT22;7202;50.718;7.072;2022-11-20T06:36:57;4.20;99.90
14236;DHT22;7202;50.718;7.072;2022-11-20T06:39:26;4.20;99.90
14236;DHT22;7202;50.718;7.072;2022-11-20T06:41:56;4.20;99.90
14236;DHT22;7202;50.718;7.072;2022-11-20T06:44:25;4.20;99.90
14236;DHT22;7202;50.718;7.072;2022-11-20T06:46:54;4.20;99.90
14236;DHT22;7202;50.718;7.072;2022-11-20T06:49:25;4.20;99.90
14236;DHT22;7202;50.718;7.072;2022-11-20T06:51:54;4.20;99.90
14236;DHT22;7202;50.718;7.072;2022-11-20T06:54:22;4.20;99.90
14236;DHT22;7202;50.718;7.072;2022-11-20T06:56:51;4.20;99.90
14236;DHT22;7202;50.718;7.072;2022-11-20T06:59:21;4.30;99.90
14236;DHT22;7202;50.718;7.072;2022-11-20T07:01:50;4.20;99.90
14236;DHT22;7202;50.718;7.072;2022-11-20T07:04:18;4.20;99.90
14236;DHT22;7202;50.718;7.072;2022-11-20T07:06:47;4.30;99.90
14236;DHT22;7202;50.718;7.072;2022-11-20T07:09:16;4.20;99.90
14236;DHT22;7202;50.718;7.072;2022-11-20T07:11:44;4.20;99.90
14236;DHT22;7202;50.718;7.072;2022-11-20T07:14:13;4.30;99.90
14236;DHT22;7202;50.718;7.072;2022-11-20T07:16:43;4.30;99.90
14236;DHT22;7202;50.718;7.072;2022-11-20T07:19:11;4.30;99.90
14236;DHT22;7202;50.718;7.072;2022-11-20T07:21:40;4.30;99.90
14236;DHT22;7202;50.718;7.072;2022-11-20T07:24:08;4.30;99.90
14236;DHT22;7202;50.718;7.072;2022-11-20T07:26:37;4.30;99.90
14236;DHT22;7202;50.718;7.072;2022-11-20T07:29:06;4.30;99.90
14236;DHT22;7202;50.718;7.072;2022-11-20T07:31:34;4.40;99.90
14236;DHT22;7202;50.718;7.072;2022-11-20T07:34:05;4.40;99.90
14236;DHT22;7202;50.718;7.072;2022-11-20T07:36:33;4.40;99.90
14236;DHT22;7202;50.718;7.072;2022-11-20T07:39:02;4.40;99.90
14236;DHT22;7202;50.718;7.072;2022-11-20T07:41:30;4.40;99.90
14236;DHT22;7202;50.718;7.072;2022-11-20T07:43:59;4.40;99.90
14236;DHT22;7202;50.718;7.072;2022-11-20T07:46:28;4.40;99.90
14236;DHT22;7202;50.718;7.072;2022-11-20T07:48:56;4.40;99.90
14236;DHT22;7202;50.718;7.072;2022-11-20T07:51:26;4.40;99.90
14236;DHT22;7202;50.718;7.072;2022-11-20T07:53:56;4.40;99.90
14236;DHT22;7202;50.718;7.072;2022-11-20T07:56:25;4.40;99.90
14236;DHT22;7202;50.718;7.072;2022-11-20T07:58:54;4.40;99.90
14236;DHT22;7202;50.718;7.072;2022-11-20T08:01:22;4.40;99.90
14236;DHT22;7202;50.718;7.072;2022-11-20T08:03:51;4.40;99.90
14236;DHT22;7202;50.718;7.072;2022-11-20T08:06:19;4.50;99.90
14236;DHT22;7202;50.718;7.072;2022-11-20T08:08:49;4.40;99.90
14236;DHT22;7202;50.718;7.072;2022-11-20T08:11:18;4.50;99.90
14236;DHT22;7202;50.718;7.072;2022-11-20T08:14:03;4.50;99.90
14236;DHT22;7202;50.718;7.072;2022-11-20T08:16:43;4.50;99.90
14236;DHT22;7202;50.718;7.072;2022-11-20T08:19:12;4.60;99.90
14236;DHT22;7202;50.718;7.072;2022-11-20T08:21:41;4.60;99.90
14236;DHT22;7202;50.718;7.072;2022-11-20T08:24:11;4.60;99.90
14236;DHT22;7202;50.718;7.072;2022-11-20T08:26:40;4.60;99.90
14236;DHT22;7202;50.718;7.072;2022-11-20T08:29:09;4.70;99.90
14236;DHT22;7202;50.718;7.072;2022-11-20T08:31:38;4.70;99.90
14236;DHT22;7202;50.718;7.072;2022-11-20T08:34:06;4.70;99.90
14236;DHT22;7202;50.718;7.072;2022-11-20T08:36:36;4.70;99.90
14236;DHT22;7202;50.718;7.072;2022-11-20T08:39:05;4.70;99.90
14236;DHT22;7202;50.718;7.072;2022-11-20T08:41:35;4.80;99.90
14236;DHT22;7202;50.718;7.072;2022-11-20T08:44:05;4.90;99.90
14236;DHT22;7202;50.718;7.072;2022-11-20T08:46:36;4.90;99.90
14236;DHT22;7202;50.718;7.072;2022-11-20T08:49:06;4.90;99.90
14236;DHT22;7202;50.718;7.072;2022-11-20T08:51:35;4.90;99.90
14236;DHT22;7202;50.718;7.072;2022-11-20T08:54:04;4.90;99.90
14236;DHT22;7202;50.718;7.072;2022-11-20T08:56:35;5.00;99.90
14236;DHT22;7202;50.718;7.072;2022-11-20T08:59:04;5.00;99.90
14236;DHT22;7202;50.718;7.072;2022-11-20T09:01:52;5.10;99.90
14236;DHT22;7202;50.718;7.072;2022-11-20T09:04:21;5.10;99.90
14236;DHT22;7202;50.718;7.072;2022-11-20T09:06:50;5.10;99.90
14236;DHT22;7202;50.718;7.072;2022-11-20T09:09:19;5.10;99.90
14236;DHT22;7202;50.718;7.072;2022-11-20T09:11:49;5.20;99.90
14236;DHT22;7202;50.718;7.072;2022-11-20T09:14:18;5.20;99.90
14236;DHT22;7202;50.718;7.072;2022-11-20T09:16:47;5.30;99.90
14236;DHT22;7202;50.718;7.072;2022-11-20T09:19:15;5.30;99.90
14236;DHT22;7202;50.718;7.072;2022-11-20T09:22:02;5.40;99.90
14236;DHT22;7202;50.718;7.072;2022-11-20T09:24:31;5.40;99.90
14236;DHT22;7202;50.718;7.072;2022-11-20T09:27:06;5.50;99.90
14236;DHT22;7202;50.718;7.072;2022-11-20T09:29:39;5.60;99.90
14236;DHT22;7202;50.718;7.072;2022-11-20T09:32:07;5.60;99.90
14236;DHT22;7202;50.718;7.072;2022-11-20T09:34:35;5.70;99.90
14236;DHT22;7202;50.718;7.072;2022-11-20T09:37:04;5.80;99.90
14236;DHT22;7202;50.718;7.072;2022-11-20T09:39:34;5.80;99.90
14236;DHT22;7202;50.718;7.072;2022-11-20T09:42:26;5.90;99.90
14236;DHT22;7202;50.718;7.072;2022-11-20T09:45:12;6.00;99.90
14236;DHT22;7202;50.718;7.072;2022-11-20T09:47:58;6.00;99.90
14236;DHT22;7202;50.718;7.072;2022-11-20T09:50:32;6.00;99.90
14236;DHT22;7202;50.718;7.072;2022-11-20T09:53:12;6.10;99.90
14236;DHT22;7202;50.718;7.072;2022-11-20T09:55:42;6.00;99.90
14236;DHT22;7202;50.718;7.072;2022-11-20T09:58:21;6.10;99.90
14236;DHT22;7202;50.718;7.072;2022-11-20T10:00:53;6.10;99.90
14236;DHT22;7202;50.718;7.072;2022-11-20T10:03:39;6.10;99.90
14236;DHT22;7202;50.718;7.072;2022-11-20T10:06:13;6.10;99.90
14236;DHT22;7202;50.718;7.072;2022-11-20T10:08:45;6.20;99.90
14236;DHT22;7202;50.718;7.072;2022-11-20T10:11:22;6.20;99.90
14236;DHT22;7202;50.718;7.072;2022-11-20T10:14:00;6.20;99.90
14236;DHT22;7202;50.718;7.072;2022-11-20T10:16:43;6.30;99.90
14236;DHT22;7202;50.718;7.072;2022-11-20T10:19:28;6.30;99.90
14236;DHT22;7202;50.718;7.072;2022-11-20T10:22:05;6.40;99.90
14236;DHT22;7202;50.718;7.072;2022-11-20T10:24:44;6.40;99.90
14236;DHT22;7202;50.718;7.072;2022-11-20T10:27:41;6.40;99.90
14236;DHT22;7202;50.718;7.072;2022-11-20T10:30:16;6.40;99.90
14236;DHT22;7202;50.718;7.072;2022-11-20T10:32:48;6.30;99.90
14236;DHT22;7202;50.718;7.072;2022-11-20T10:35:21;6.30;99.90
14236;DHT22;7202;50.718;7.072;2022-11-20T10:37:56;6.30;99.90
14236;DHT22;7202;50.718;7.072;2022-11-20T10:40:31;6.30;99.90
14236;DHT22;7202;50.718;7.072;2022-11-20T10:43:10;6.40;99.90
14236;DHT22;7202;50.718;7.072;2022-11-20T10:45:48;6.40;99.90
14236;DHT22;7202;50.718;7.072;2022-11-20T10:48:22;6.40;99.90
14236;DHT22;7202;50.718;7.072;2022-11-20T10:51:13;6.30;99.90
14236;DHT22;7202;50.718;7.072;2022-11-20T10:53:51;6.30;99.90
14236;DHT22;7202;50.718;7.072;2022-11-20T10:56:27;6.30;99.90
14236;DHT22;7202;50.718;7.072;2022-11-20T10:59:24;6.30;99.90
14236;DHT22;7202;50.718;7.072;2022-11-20T11:01:57;6.30;99.90
14236;DHT22;7202;50.718;7.072;2022-11-20T11:04:35;6.20;99.90
14236;DHT22;7202;50.718;7.072;2022-11-20T11:07:10;6.20;99.90
14236;DHT22;7202;50.718;7.072;2022-11-20T11:09:43;6.20;99.90
14236;DHT22;7202;50.718;7.072;2022-11-20T11:12:12;6.40;99.90
14236;DHT22;7202;50.718;7.072;2022-11-20T11:14:46;6.30;99.90
14236;DHT22;7202;50.718;7.072;2022-11-20T11:17:25;6.30;99.90
14236;DHT22;7202;50.718;7.072;2022-11-20T11:22:45;6.40;99.90
14236;DHT22;7202;50.718;7.072;2022-11-20T11:25:26;6.40;99.90
14236;DHT22;7202;50.718;7.072;2022-11-20T11:27:58;6.50;99.90
14236;DHT22;7202;50.718;7.072;2022-11-20T11:30:29;6.50;99.90
14236;DHT22;7202;50.718;7.072;2022-11-20T11:33:10;6.50;99.90
14236;DHT22;7202;50.718;7.072;2022-11-20T11:35:45;6.50;99.90
14236;DHT22;7202;50.718;7.072;2022-11-20T11:38:21;6.50;99.90
14236;DHT22;7202;50.718;7.072;2022-11-20T11:40:53;6.50;99.90
14236;DHT22;7202;50.718;7.072;2022-11-20T11:43:26;6.50;99.90
14236;DHT22;7202;50.718;7.072;2022-11-20T11:46:25;6.50;99.90
14236;DHT22;7202;50.718;7.072;2022-11-20T11:48:58;6.50;99.90
14236;DHT22;7202;50.718;7.072;2022-11-20T11:51:34;6.50;99.90
14236;DHT22;7202;50.718;7.072;2022-11-20T11:54:13;6.50;99.90
14236;DHT22;7202;50.718;7.072;2022-11-20T11:56:43;6.50;99.90
14236;DHT22;7202;50.718;7.072;2022-11-20T11:59:16;6.60;99.90
14236;DHT22;7202;50.718;7.072;2022-11-20T12:01:52;6.60;99.90
14236;DHT22;7202;50.718;7.072;2022-11-20T12:04:30;6.60;99.90
14236;DHT22;7202;50.718;7.072;2022-11-20T12:07:12;6.60;99.90
14236;DHT22;7202;50.718;7.072;2022-11-20T12:10:04;6.70;99.90
14236;DHT22;7202;50.718;7.072;2022-11-20T12:12:37;6.70;99.90
14236;DHT22;7202;50.718;7.072;2022-11-20T12:15:11;6.70;99.90
14236;DHT22;7202;50.718;7.072;2022-11-20T12:17:41;6.70;99.90
14236;DHT22;7202;50.718;7.072;2022-11-20T12:20:13;6.70;99.90
14236;DHT22;7202;50.718;7.072;2022-11-20T12:22:48;6.80;99.90
14236;DHT22;7202;50.718;7.072;2022-11-20T12:25:22;6.80;99.90
14236;DHT22;7202;50.718;7.072;2022-11-20T12:28:09;6.90;99.90
14236;DHT22;7202;50.718;7.072;2022-11-20T12:30:50;6.90;99.90
14236;DHT22;7202;50.718;7.072;2022-11-20T12:33:54;7.00;99.90
14236;DHT22;7202;50.718;7.072;2022-11-20T12:36:32;7.00;99.90
14236;DHT22;7202;50.718;7.072;2022-11-20T12:39:24;7.00;99.90
14236;DHT22;7202;50.718;7.072;2022-11-20T12:42:16;7.00;99.90
14236;DHT22;7202;50.718;7.072;2022-11-20T12:45:14;7.00;99.90
14236;DHT22;7202;50.718;7.072;2022-11-20T12:47:59;7.10;99.90
14236;DHT22;7202;50.718;7.072;2022-11-20T12:50:40;7.00;99.90
14236;DHT22;7202;50.718;7.072;2022-11-20T12:53:40;7.00;99.90
14236;DHT22;7202;50.718;7.072;2022-11-20T12:56:21;7.10;99.90
14236;DHT22;7202;50.718;7.072;2022-11-20T12:59:05;7.10;99.90
14236;DHT22;7202;50.718;7.072;2022-11-20T13:01:42;7.10;99.90
14236;DHT22;7202;50.718;7.072;2022-11-20T13:04:29;7.10;99.90
14236;DHT22;7202;50.718;7.072;2022-11-20T13:07:01;7.10;99.90
14236;DHT22;7202;50.718;7.072;2022-11-20T13:09:32;7.10;99.90
14236;DHT22;7202;50.718;7.072;2022-11-20T13:12:05;7.10;99.90
14236;DHT22;7202;50.718;7.072;2022-11-20T13:14:41;7.10;99.90
14236;DHT22;7202;50.718;7.072;2022-11-20T13:17:15;7.10;99.90
14236;DHT22;7202;50.718;7.072;2022-11-20T13:19:48;7.10;99.90
14236;DHT22;7202;50.718;7.072;2022-11-20T13:22:24;7.20;99.90
14236;DHT22;7202;50.718;7.072;2022-11-20T13:24:54;7.20;99.90
14236;DHT22;7202;50.718;7.072;2022-11-20T13:27:24;7.20;99.90
14236;DHT22;7202;50.718;7.072;2022-11-20T13:30:01;7.20;99.90
14236;DHT22;7202;50.718;7.072;2022-11-20T13:32:30;7.20;99.90
14236;DHT22;7202;50.718;7.072;2022-11-20T13:35:01;7.30;99.90
14236;DHT22;7202;50.718;7.072;2022-11-20T13:37:33;7.30;99.90
14236;DHT22;7202;50.718;7.072;2022-11-20T13:40:13;7.30;99.90
14236;DHT22;7202;50.718;7.072;2022-11-20T13:42:45;7.30;99.90
14236;DHT22;7202;50.718;7.072;2022-11-20T13:45:23;7.30;99.90
14236;DHT22;7202;50.718;7.072;2022-11-20T13:47:53;7.30;99.90
14236;DHT22;7202;50.718;7.072;2022-11-20T13:50:40;7.30;99.90
14236;DHT22;7202;50.718;7.072;2022-11-20T13:53:25;7.30;99.90
14236;DHT22;7202;50.718;7.072;2022-11-20T13:56:01;7.30;99.90
14236;DHT22;7202;50.718;7.072;2022-11-20T13:58:43;7.30;99.90
14236;DHT22;7202;50.718;7.072;2022-11-20T14:01:16;7.30;99.90
14236;DHT22;7202;50.718;7.072;2022-11-20T14:03:47;7.30;99.90
14236;DHT22;7202;50.718;7.072;2022-11-20T14:06:38;7.30;99.90
14236;DHT22;7202;50.718;7.072;2022-11-20T14:09:11;7.30;99.90
14236;DHT22;7202;50.718;7.072;2022-11-20T14:11:47;7.30;99.90
14236;DHT22;7202;50.718;7.072;2022-11-20T14:14:17;7.40;99.90
14236;DHT22;7202;50.718;7.072;2022-11-20T14:16:47;7.40;99.90
14236;DHT22;7202;50.718;7.072;2022-11-20T14:19:43;7.40;99.90
14236;DHT22;7202;50.718;7.072;2022-11-20T14:22:19;7.40;99.90
14236;DHT22;7202;50.718;7.072;2022-11-20T14:24:48;7.50;99.90
14236;DHT22;7202;50.718;7.072;2022-11-20T14:27:20;7.40;99.90
14236;DHT22;7202;50.718;7.072;2022-11-20T14:29:50;7.40;99.90
14236;DHT22;7202;50.718;7.072;2022-11-20T14:32:21;7.40;99.90
14236;DHT22;7202;50.718;7.072;2022-11-20T14:34:54;7.40;99.90
14236;DHT22;7202;50.718;7.072;2022-11-20T14:37:24;7.50;99.90
14236;DHT22;7202;50.718;7.072;2022-11-20T14:39:55;7.50;99.90
14236;DHT22;7202;50.718;7.072;2022-11-20T14:42:28;7.50;99.90
14236;DHT22;7202;50.718;7.072;2022-11-20T14:44:59;7.50;99.90
14236;DHT22;7202;50.718;7.072;2022-11-20T14:47:30;7.50;99.90
14236;DHT22;7202;50.718;7.072;2022-11-20T14:50:00;7.50;99.90
14236;DHT22;7202;50.718;7.072;2022-11-20T14:52:36;7.50;99.90
14236;DHT22;7202;50.718;7.072;2022-11-20T14:55:05;7.50;99.90
14236;DHT22;7202;50.718;7.072;2022-11-20T14:57:36;7.50;99.90
14236;DHT22;7202;50.718;7.072;2022-11-20T15:00:17;7.50;99.90
14236;DHT22;7202;50.718;7.072;2022-11-20T15:02:48;7.50;99.90
14236;DHT22;7202;50.718;7.072;2022-11-20T15:05:19;7.60;99.90
14236;DHT22;7202;50.718;7.072;2022-11-20T15:07:50;7.60;99.90
14236;DHT22;7202;50.718;7.072;2022-11-20T15:10:24;7.50;99.90
14236;DHT22;7202;50.718;7.072;2022-11-20T15:12:56;7.50;99.90
14236;DHT22;7202;50.718;7.072;2022-11-20T15:15:30;7.50;99.90
14236;DHT22;7202;50.718;7.072;2022-11-20T15:17:59;7.50;99.90
14236;DHT22;7202;50.718;7.072;2022-11-20T15:20:31;7.40;99.90
14236;DHT22;7202;50.718;7.072;2022-11-20T15:23:00;7.40;99.90
14236;DHT22;7202;50.718;7.072;2022-11-20T15:25:28;7.40;99.90
14236;DHT22;7202;50.718;7.072;2022-11-20T15:27:58;7.40;99.90
14236;DHT22;7202;50.718;7.072;2022-11-20T15:30:27;7.40;99.90
14236;DHT22;7202;50.718;7.072;2022-11-20T15:32:59;7.40;99.90
14236;DHT22;7202;50.718;7.072;2022-11-20T15:35:27;7.30;99.90
14236;DHT22;7202;50.718;7.072;2022-11-20T15:37:56;7.40;99.90
14236;DHT22;7202;50.718;7.072;2022-11-20T15:40:25;7.40;99.90
14236;DHT22;7202;50.718;7.072;2022-11-20T15:42:54;7.40;99.90
14236;DHT22;7202;50.718;7.072;2022-11-20T15:45:43;7.30;99.90
14236;DHT22;7202;50.718;7.072;2022-11-20T15:48:16;7.30;99.90
14236;DHT22;7202;50.718;7.072;2022-11-20T15:50:50;7.20;99.90
14236;DHT22;7202;50.718;7.072;2022-11-20T15:53:20;7.20;99.90
14236;DHT22;7202;50.718;7.072;2022-11-20T15:55:49;7.20;99.90
14236;DHT22;7202;50.718;7.072;2022-11-20T15:58:18;7.20;99.90
14236;DHT22;7202;50.718;7.072;2022-11-20T16:00:48;7.20;99.90
14236;DHT22;7202;50.718;7.072;2022-11-20T16:03:17;7.20;99.90
14236;DHT22;7202;50.718;7.072;2022-11-20T16:05:45;7.10;99.90
14236;DHT22;7202;50.718;7.072;2022-11-20T16:08:14;7.10;99.90
14236;DHT22;7202;50.718;7.072;2022-11-20T16:10:43;7.10;99.90
14236;DHT22;7202;50.718;7.072;2022-11-20T16:13:13;7.10;99.90
14236;DHT22;7202;50.718;7.072;2022-11-20T16:16:03;7.10;99.90
14236;DHT22;7202;50.718;7.072;2022-11-20T16:18:33;7.00;99.90
14236;DHT22;7202;50.718;7.072;2022-11-20T16:21:02;7.00;99.90
14236;DHT22;7202;50.718;7.072;2022-11-20T16:23:31;7.00;99.90
14236;DHT22;7202;50.718;7.072;2022-11-20T16:26:09;7.00;99.90
14236;DHT22;7202;50.718;7.072;2022-11-20T16:28:38;7.10;99.90
14236;DHT22;7202;50.718;7.072;2022-11-20T16:31:13;7.00;99.90
14236;DHT22;7202;50.718;7.072;2022-11-20T16:33:48;7.00;99.90
14236;DHT22;7202;50.718;7.072;2022-11-20T16:36:16;7.10;99.90
14236;DHT22;7202;50.718;7.072;2022-11-20T16:38:46;7.00;99.90